Time;durP1;ratioP1;P1;durP2;ratioP2;P2;SDS_P1;SDS_P2;PMS_P1;PMS_P2;Temp;Humidity;BMP_temperature;BMP_pressure;BME280_temperature;BME280_humidity;BME280_pressure;Samples;Min_cycle;Max_cycle;Signal;HPM_P1;HPM_P2
2021/11/18 00:00:24;;;;;;;12.03;7.47;;;7.50;1.00;;;;;;5014051;28;20942;-74
2021/11/18 00:03:16;;;;;;;10.07;5.77;;;7.50;1.00;;;;;;5014472;28;20400;-74
2021/11/18 00:06:16;;;;;;;13.37;6.73;;;7.40;1.00;;;;;;5012510;28;20473;-77
2021/11/18 00:12:23;;;;;;;12.70;7.33;;;7.30;1.00;;;;;;5012813;28;20442;-77
2021/11/18 00:14:52;;;;;;;12.20;6.63;;;7.30;1.00;;;;;;5008282;28;20408;-77
2021/11/18 00:17:59;;;;;;;13.60;6.10;;;7.20;1.00;;;;;;5014112;28;20419;-77
2021/11/18 00:23:49;;;;;;;13.47;7.40;;;7.00;1.00;;;;;;5007986;28;20410;-77
2021/11/18 00:26:29;;;;;;;12.30;7.30;;;7.00;1.00;;;;;;5014012;28;20543;-77
2021/11/18 00:29:28;;;;;;;14.87;7.80;;;7.00;1.00;;;;;;5013317;28;20793;-77
2021/11/18 00:32:16;;;;;;;12.13;7.00;;;6.90;1.00;;;;;;5007372;28;20934;-77
2021/11/18 00:34:46;;;;;;;14.77;7.30;;;6.90;1.00;;;;;;5014378;28;20461;-74
2021/11/18 00:37:12;;;;;;;10.67;6.60;;;6.90;1.00;;;;;;5013789;28;20427;-73
2021/11/18 00:39:52;;;;;;;11.93;7.67;;;6.80;1.00;;;;;;5013794;28;20420;-74
2021/11/18 00:42:18;;;;;;;10.70;6.30;;;6.90;1.00;;;;;;5013748;28;20418;-74
2021/11/18 00:44:54;;;;;;;13.27;6.83;;;6.80;1.00;;;;;;5013704;28;20510;-74
2021/11/18 00:47:28;;;;;;;15.60;6.70;;;6.80;1.00;;;;;;5013555;28;20173;-74
2021/11/18 00:50:10;;;;;;;17.83;7.27;;;6.80;1.00;;;;;;5014530;28;20518;-77
2021/11/18 00:52:52;;;;;;;18.13;6.83;;;6.70;1.00;;;;;;5013674;28;20416;-78
2021/11/18 00:58:39;;;;;;;12.03;6.50;;;6.70;1.00;;;;;;5013182;28;20819;-77
2021/11/18 01:01:06;;;;;;;10.70;6.70;;;6.70;1.00;;;;;;5012430;28;20427;-77
2021/11/18 01:07:04;;;;;;;11.97;6.80;;;;;;;;;;5014679;28;20463;-74
2021/11/18 01:09:31;;;;;;;11.83;6.30;;;6.80;1.00;;;;;;5017703;28;20411;-74
2021/11/18 01:12:11;;;;;;;15.67;6.63;;;6.80;1.00;;;;;;5017319;28;20412;-74
2021/11/18 01:14:40;;;;;;;14.33;6.27;;;6.90;1.00;;;;;;5006621;28;20420;-74
2021/11/18 01:17:10;;;;;;;12.77;7.20;;;6.90;1.00;;;;;;5017017;28;20477;-74
2021/11/18 01:19:37;;;;;;;10.67;6.53;;;6.90;1.00;;;;;;5017680;28;20452;-74
2021/11/18 01:22:10;;;;;;;10.70;6.97;;;6.80;1.00;;;;;;5017699;28;20980;-74
2021/11/18 01:24:39;;;;;;;14.40;7.63;;;6.80;1.00;;;;;;5017370;28;20430;-74
2021/11/18 01:27:05;;;;;;;15.40;7.50;;;6.80;1.00;;;;;;5017507;28;20451;-74
2021/11/18 01:29:40;;;;;;;15.00;7.30;;;6.80;1.00;;;;;;5017016;28;20837;-74
2021/11/18 01:32:10;;;;;;;12.00;6.50;;;6.70;1.00;;;;;;5017449;28;20417;-74
2021/11/18 01:34:52;;;;;;;14.73;7.47;;;6.70;1.00;;;;;;5015779;28;20450;-74
2021/11/18 01:41:12;;;;;;;15.03;6.80;;;6.70;1.00;;;;;;5016671;28;20833;-77
2021/11/18 01:43:47;;;;;;;9.47;6.67;;;6.60;1.00;;;;;;5016889;28;20773;-77
2021/11/18 01:46:25;;;;;;;13.63;7.33;;;6.60;1.00;;;;;;5017167;28;20459;-77
2021/11/18 01:49:22;;;;;;;11.17;6.70;;;6.50;1.00;;;;;;5016028;28;20518;-77
2021/11/18 01:51:53;;;;;;;18.20;8.13;;;6.50;1.00;;;;;;5017174;28;20752;-74
2021/11/18 01:54:26;;;;;;;18.07;8.10;;;6.50;1.00;;;;;;5016969;28;20510;-75
2021/11/18 01:56:52;;;;;;;14.00;7.30;;;6.50;1.00;;;;;;5016782;28;20419;-74
2021/11/18 01:59:22;;;;;;;12.20;6.73;;;6.50;1.00;;;;;;5017164;28;20449;-74
2021/11/18 02:01:55;;;;;;;14.40;7.10;;;6.50;1.00;;;;;;5016718;28;20470;-74
2021/11/18 02:04:31;;;;;;;12.00;7.50;;;6.50;1.00;;;;;;5016554;28;20428;-74
2021/11/18 02:07:22;;;;;;;17.63;7.10;;;6.50;1.00;;;;;;5016842;28;21087;-77
2021/11/18 02:10:11;;;;;;;14.13;6.43;;;6.40;1.00;;;;;;5017181;28;20450;-77
2021/11/18 02:12:38;;;;;;;13.07;7.20;;;6.40;1.00;;;;;;5015803;28;20491;-77
2021/11/18 02:15:30;;;;;;;11.57;6.50;;;;;;;;;;5012885;28;20498;-77
2021/11/18 02:18:00;;;;;;;18.27;7.90;;;6.40;1.00;;;;;;5011052;28;20418;-78
2021/11/18 02:21:21;;;;;;;11.73;7.37;;;6.30;1.00;;;;;;5014829;28;20424;-77
2021/11/18 02:24:26;;;;;;;16.43;7.13;;;6.30;1.00;;;;;;5016605;28;20430;-77
2021/11/18 02:27:23;;;;;;;11.27;6.53;;;6.20;1.00;;;;;;5005925;28;20463;-77
2021/11/18 02:30:16;;;;;;;15.33;7.47;;;6.20;1.00;;;;;;5016264;28;20772;-77
2021/11/18 02:32:54;;;;;;;12.63;5.83;;;6.20;1.00;;;;;;5015733;28;20444;-77
2021/11/18 02:35:26;;;;;;;11.53;5.73;;;6.10;1.00;;;;;;5016357;28;20439;-74
2021/11/18 02:37:55;;;;;;;16.70;8.30;;;6.20;1.00;;;;;;5016126;28;20423;-74
2021/11/18 02:40:22;;;;;;;20.50;7.67;;;6.20;1.00;;;;;;5016008;28;20400;-74
2021/11/18 02:42:50;;;;;;;11.43;5.80;;;6.10;1.00;;;;;;5015395;28;20452;-74
2021/11/18 02:45:18;;;;;;;10.80;5.93;;;6.10;1.00;;;;;;5015706;28;20456;-74
2021/11/18 02:47:46;;;;;;;11.80;6.40;;;6.10;1.00;;;;;;5015746;28;20412;-74
2021/11/18 02:50:35;;;;;;;7.90;6.07;;;6.10;1.00;;;;;;5016185;28;20932;-74
2021/11/18 02:53:03;;;;;;;11.35;6.28;;;6.10;1.00;;;;;;5014693;28;20433;-74
2021/11/18 02:55:32;;;;;;;11.80;6.30;;;6.10;1.00;;;;;;5022799;28;20168;-74
2021/11/18 02:57:59;;;;;;;18.10;6.97;;;6.00;1.00;;;;;;5015647;28;20408;-74
2021/11/18 03:00:30;;;;;;;11.13;6.07;;;6.00;1.00;;;;;;5014444;28;20427;-74
2021/11/18 03:03:04;;;;;;;12.50;7.20;;;5.90;1.00;;;;;;5015576;28;20411;-73
2021/11/18 03:08:52;;;;;;;9.70;5.90;;;6.00;1.00;;;;;;5014886;28;20434;-77
2021/11/18 03:11:28;;;;;;;16.03;7.50;;;6.00;1.00;;;;;;5015127;28;20431;-77
2021/11/18 03:13:56;;;;;;;9.67;6.17;;;6.10;1.00;;;;;;5014459;28;20898;-77
2021/11/18 03:16:22;;;;;;;12.63;6.53;;;6.10;1.00;;;;;;5013651;28;20400;-77
2021/11/18 03:18:52;;;;;;;14.10;7.57;;;6.20;1.00;;;;;;5015537;28;20495;-77
2021/11/18 03:21:52;;;;;;;11.90;6.70;;;6.20;1.00;;;;;;5015535;28;20966;-76
2021/11/18 03:24:52;;;;;;;12.70;6.20;;;6.20;1.00;;;;;;5014736;28;20477;-77
2021/11/18 03:27:17;;;;;;;12.33;7.10;;;6.30;1.00;;;;;;5011048;28;20508;-77
2021/11/18 03:29:46;;;;;;;9.77;5.50;;;6.20;1.00;;;;;;5014547;28;20847;-76
2021/11/18 03:32:40;;;;;;;23.53;7.47;;;6.40;1.00;;;;;;5014928;28;20256;-77
2021/11/18 03:35:07;;;;;;;11.53;6.90;;;6.40;1.00;;;;;;5010430;28;20438;-76
2021/11/18 03:38:05;;;;;;;13.93;7.07;;;6.50;1.00;;;;;;5015335;28;20431;-76
2021/11/18 03:44:17;;;;;;;13.57;6.63;;;6.50;1.00;;;;;;5008770;28;20426;-76
2021/11/18 03:46:50;;;;;;;14.40;8.07;;;6.50;1.00;;;;;;5014925;28;20832;-77
2021/11/18 03:49:24;;;;;;;16.90;8.53;;;6.70;1.00;;;;;;5015252;28;20434;-77
2021/11/18 03:52:22;;;;;;;15.80;7.93;;;6.70;1.00;;;;;;5014972;28;20510;-77
2021/11/18 03:54:58;;;;;;;16.13;7.40;;;6.80;1.00;;;;;;5010495;28;20420;-77
2021/11/18 03:57:35;;;;;;;16.10;7.33;;;6.80;1.00;;;;;;5014538;28;20519;-77
2021/11/18 04:00:35;;;;;;;15.63;7.20;;;6.80;1.00;;;;;;5008443;28;20871;-77
2021/11/18 04:03:12;;;;;;;14.60;8.13;;;6.90;1.00;;;;;;5012064;28;20457;-78
2021/11/18 04:05:56;;;;;;;22.87;7.93;;;6.90;1.00;;;;;;5014099;28;20537;-77
2021/11/18 04:08:21;;;;;;;13.60;7.20;;;6.90;1.00;;;;;;5013731;28;20431;-74
2021/11/18 04:10:52;;;;;;;17.20;7.93;;;7.00;1.00;;;;;;5013683;28;20789;-74
2021/11/18 04:13:18;;;;;;;17.20;8.57;;;7.00;1.00;;;;;;5013699;28;20766;-74
2021/11/18 04:15:49;;;;;;;24.83;8.27;;;7.00;1.00;;;;;;5009578;28;20511;-74
2021/11/18 04:18:18;;;;;;;16.47;7.53;;;7.00;1.00;;;;;;5014036;28;20518;-74
2021/11/18 04:20:52;;;;;;;15.13;7.07;;;7.00;1.00;;;;;;5014364;28;20416;-74
2021/11/18 04:23:25;;;;;;;13.80;6.43;;;7.00;1.00;;;;;;5014446;28;20933;-74
2021/11/18 04:25:52;;;;;;;20.33;7.70;;;7.00;1.00;;;;;;5014146;28;20946;-74
2021/11/18 04:28:23;;;;;;;12.13;7.50;;;6.90;1.00;;;;;;5011886;28;20415;-74
2021/11/18 04:30:58;;;;;;;13.43;6.80;;;7.00;1.00;;;;;;5014444;28;20407;-74
2021/11/18 04:33:26;;;;;;;13.00;7.10;;;6.90;1.00;;;;;;5014291;28;20462;-74
2021/11/18 04:35:53;;;;;;;23.30;8.47;;;6.90;1.00;;;;;;5013682;28;20446;-74
2021/11/18 04:38:53;;;;;;;20.53;8.90;;;6.90;1.00;;;;;;5014359;28;20420;-77
2021/11/18 04:41:25;;;;;;;20.03;7.80;;;6.90;1.00;;;;;;5013344;28;20490;-77
2021/11/18 04:43:52;;;;;;;15.57;7.33;;;6.90;1.00;;;;;;5013553;28;20424;-77
2021/11/18 04:46:23;;;;;;;15.10;7.30;;;6.80;1.00;;;;;;5013678;28;20555;-77
2021/11/18 04:49:22;;;;;;;20.30;7.33;;;6.80;1.00;;;;;;5014461;28;20420;-76
2021/11/18 04:51:52;;;;;;;15.47;7.57;;;6.70;1.00;;;;;;5013966;28;20483;-77
2021/11/18 04:54:22;;;;;;;17.30;8.27;;;6.70;1.00;;;;;;5013865;28;20416;-77
2021/11/18 04:56:52;;;;;;;13.60;7.30;;;6.70;1.00;;;;;;5013430;28;20415;-77
2021/11/18 04:59:22;;;;;;;17.83;6.63;;;6.70;1.00;;;;;;5013963;28;20396;-77
2021/11/18 05:02:22;;;;;;;16.53;8.13;;;6.70;1.00;;;;;;5013781;28;20450;-77
2021/11/18 05:08:11;;;;;;;13.77;7.33;;;6.50;1.00;;;;;;5009178;28;20776;-74
2021/11/18 05:10:37;;;;;;;15.90;7.63;;;6.50;1.00;;;;;;5013835;28;20936;-72
2021/11/18 05:13:05;;;;;;;18.27;7.73;;;6.50;1.00;;;;;;5013522;28;20420;-76
2021/11/18 05:15:34;;;;;;;14.20;7.80;;;6.50;1.00;;;;;;5012003;28;20226;-75
2021/11/18 05:17:59;;;;;;;14.00;7.30;;;6.60;1.00;;;;;;5013479;28;20419;-75
2021/11/18 05:20:42;;;;;;;13.13;7.40;;;6.60;1.00;;;;;;5013543;28;20988;-74
2021/11/18 05:23:10;;;;;;;8.77;5.77;;;6.60;1.00;;;;;;5010735;28;20620;-74
2021/11/18 05:25:40;;;;;;;16.37;7.80;;;6.60;1.00;;;;;;5013993;28;20792;-74
2021/11/18 05:28:16;;;;;;;17.37;7.57;;;6.70;1.00;;;;;;5013084;28;20424;-74
2021/11/18 05:30:42;;;;;;;23.37;8.47;;;6.70;1.00;;;;;;5013339;28;20482;-73
2021/11/18 05:33:26;;;;;;;20.30;8.20;;;6.70;1.00;;;;;;5002858;28;20443;-75
2021/11/18 05:35:51;;;;;;;25.03;7.77;;;6.70;1.00;;;;;;5012921;28;20922;-74
2021/11/18 05:38:17;;;;;;;17.47;8.33;;;6.80;1.00;;;;;;5012833;28;20420;-73
2021/11/18 05:40:46;;;;;;;15.10;7.60;;;4.90;1.00;;;;;;5013175;28;20216;-74
2021/11/18 05:43:13;;;;;;;18.57;7.67;;;6.80;1.00;;;;;;5013282;28;20506;-74
2021/11/18 05:45:40;;;;;;;11.90;7.40;;;6.80;1.00;;;;;;5013563;28;20781;-74
2021/11/18 05:48:34;;;;;;;17.53;8.07;;;6.80;1.00;;;;;;5012797;28;20468;-75
2021/11/18 05:51:06;;;;;;;19.20;7.57;;;6.80;1.00;;;;;;5013981;28;20424;-74
2021/11/18 05:53:38;;;;;;;19.83;7.87;;;6.80;1.00;;;;;;5015665;28;20764;-74
2021/11/18 05:56:13;;;;;;;21.40;8.40;;;6.80;1.00;;;;;;5015790;28;20558;-74
2021/11/18 05:58:41;;;;;;;12.90;7.50;;;6.80;1.00;;;;;;5016534;28;20422;-74
2021/11/18 06:01:08;;;;;;;14.30;7.30;;;6.70;1.00;;;;;;5016816;28;20412;-74
2021/11/18 06:03:35;;;;;;;13.87;7.30;;;6.70;1.00;;;;;;5016888;28;20465;-74
2021/11/18 06:06:11;;;;;;;18.40;7.33;;;6.70;1.00;;;;;;5016459;28;20468;-74
2021/11/18 06:08:38;;;;;;;16.37;7.67;;;6.80;1.00;;;;;;5015305;28;20523;-80
2021/11/18 06:11:46;;;;;;;16.10;8.47;;;6.80;1.00;;;;;;5017081;28;20411;-78
2021/11/18 06:14:12;;;;;;;16.77;7.50;;;6.80;1.00;;;;;;5011850;28;20462;-77
2021/11/18 06:16:53;;;;;;;22.03;7.83;;;6.80;1.00;;;;;;5009070;28;20420;-78
2021/11/18 06:19:22;;;;;;;16.53;8.23;;;6.80;1.00;;;;;;5016296;28;20423;-78
2021/11/18 06:22:10;;;;;;;14.73;7.70;;;6.90;1.00;;;;;;5016283;28;20420;-77
2021/11/18 06:24:41;;;;;;;12.57;7.33;;;6.90;1.00;;;;;;5016622;28;20419;-77
2021/11/18 06:27:23;;;;;;;20.23;8.37;;;6.90;1.00;;;;;;5015215;28;20460;-78
2021/11/18 06:29:52;;;;;;;14.87;7.40;;;6.90;1.00;;;;;;5015992;28;20426;-78
2021/11/18 06:32:18;;;;;;;17.10;8.00;;;6.90;1.00;;;;;;5016323;28;20925;-77
2021/11/18 06:34:52;;;;;;;17.90;8.37;;;7.00;1.00;;;;;;5016072;28;20499;-77
2021/11/18 06:37:28;;;;;;;19.70;9.90;;;7.00;1.00;;;;;;5016089;28;20180;-75
2021/11/18 06:39:58;;;;;;;18.17;8.37;;;7.00;1.00;;;;;;5016069;28;20431;-75
2021/11/18 06:42:24;;;;;;;15.33;9.23;;;7.10;1.00;;;;;;5015812;28;20424;-74
2021/11/18 06:44:50;;;;;;;20.80;7.97;;;7.10;1.00;;;;;;5015866;28;20503;-75
2021/11/18 06:47:17;;;;;;;17.03;8.50;;;7.10;1.00;;;;;;5015454;28;20193;-75
2021/11/18 06:49:53;;;;;;;19.17;9.10;;;7.10;1.00;;;;;;5008983;28;20227;-74
2021/11/18 06:52:19;;;;;;;10.90;7.13;;;7.20;1.00;;;;;;5000087;28;20444;-74
2021/11/18 06:54:49;;;;;;;17.93;8.93;;;7.20;1.00;;;;;;5016538;28;20447;-74
2021/11/18 06:57:15;;;;;;;28.17;9.37;;;7.30;1.00;;;;;;5015244;28;20424;-76
2021/11/18 06:59:46;;;;;;;17.33;8.80;;;7.30;1.00;;;;;;5015915;28;20470;-75
2021/11/18 07:02:13;;;;;;;14.43;8.20;;;7.40;1.00;;;;;;5014330;28;20506;-75
2021/11/18 07:04:53;;;;;;;17.97;8.10;;;7.40;1.00;;;;;;5015167;28;20522;-75
2021/11/18 07:10:24;;;;;;;22.10;8.53;;;7.50;1.00;;;;;;5015095;28;20988;-74
2021/11/18 07:12:58;;;;;;;21.02;8.90;;;7.50;1.00;;;;;;5010034;28;20427;-75
2021/11/18 07:15:46;;;;;;;15.43;8.50;;;7.60;1.00;;;;;;5010913;28;20177;-74
2021/11/18 07:18:12;;;;;;;22.57;9.87;;;;;;;;;;5011378;28;20412;-74
2021/11/18 07:20:52;;;;;;;15.47;9.07;;;7.60;1.00;;;;;;5007598;28;20527;-74
2021/11/18 07:23:23;;;;;;;23.40;9.70;;;7.60;1.00;;;;;;5011398;28;20919;-75
2021/11/18 07:25:55;;;;;;;47.60;10.60;;;7.60;1.00;;;;;;5015009;28;21746;-74
2021/11/18 07:28:24;;;;;;;15.10;8.03;;;7.70;1.00;;;;;;5011979;28;20452;-75
2021/11/18 07:30:50;;;;;;;24.30;10.57;;;7.70;1.00;;;;;;5015375;28;20399;-74
2021/11/18 07:33:30;;;;;;;23.40;9.60;;;7.70;1.00;;;;;;5015431;28;20428;-75
2021/11/18 07:35:55;;;;;;;17.03;9.60;;;7.70;1.00;;;;;;5015106;28;20797;-74
2021/11/18 07:42:40;;;;;;;19.30;8.17;;;7.80;1.00;;;;;;5010697;28;20180;-81
2021/11/18 07:45:18;;;;;;;17.27;8.77;;;7.90;1.00;;;;;;5011160;28;20416;-77
2021/11/18 07:47:53;;;;;;;24.40;9.30;;;7.80;1.00;;;;;;5014283;28;20784;-78
2021/11/18 07:50:34;;;;;;;16.00;8.50;;;7.80;1.00;;;;;;5014837;28;20815;-78
2021/11/18 07:53:07;;;;;;;14.27;8.57;;;7.90;1.00;;;;;;5012232;28;20424;-75
2021/11/18 07:56:04;;;;;;;17.10;9.13;;;7.80;1.00;;;;;;5013668;28;20422;-77
2021/11/18 07:58:34;;;;;;;16.93;7.60;;;8.00;1.00;;;;;;5012101;28;20493;-76
2021/11/18 08:04:22;;;;;;;18.40;9.57;;;8.10;1.00;;;;;;5008527;28;20435;-78
2021/11/18 08:07:22;;;;;;;16.43;9.37;;;8.00;1.00;;;;;;5014031;28;20543;-78
2021/11/18 08:10:06;;;;;;;18.20;9.10;;;8.10;1.00;;;;;;5014834;28;20415;-74
2021/11/18 08:12:35;;;;;;;19.77;9.53;;;8.10;1.00;;;;;;5012510;28;20489;-74
2021/11/18 08:15:07;;;;;;;17.03;8.83;;;8.10;1.00;;;;;;5013754;28;20408;-74
2021/11/18 08:17:32;;;;;;;16.53;9.30;;;8.10;1.00;;;;;;5014027;28;20899;-74
2021/11/18 08:19:58;;;;;;;21.13;9.63;;;8.00;1.00;;;;;;5008045;28;20480;-74
2021/11/18 08:22:28;;;;;;;17.30;8.73;;;8.00;1.00;;;;;;5010931;28;20203;-74
2021/11/18 08:25:17;;;;;;;24.57;8.83;;;8.00;1.00;;;;;;5014336;28;20580;-74
2021/11/18 08:27:43;;;;;;;21.63;10.40;;;8.00;1.00;;;;;;5014077;28;20778;-74
2021/11/18 08:30:21;;;;;;;16.10;8.47;;;8.00;1.00;;;;;;5014352;28;20403;-75
2021/11/18 08:33:06;;;;;;;16.93;8.90;;;8.10;1.00;;;;;;5015970;28;20431;-74
2021/11/18 08:35:34;;;;;;;19.50;9.70;;;8.20;1.00;;;;;;5016481;28;20434;-74
2021/11/18 08:38:04;;;;;;;16.97;9.60;;;8.30;1.00;;;;;;5011667;28;20412;-74
2021/11/18 08:40:31;;;;;;;15.57;9.07;;;8.20;1.00;;;;;;5013017;28;20408;-74
2021/11/18 08:42:57;;;;;;;19.67;8.93;;;8.40;1.00;;;;;;5012807;28;20474;-77
2021/11/18 08:45:24;;;;;;;14.73;8.60;;;8.40;1.00;;;;;;5012772;28;20539;-74
2021/11/18 08:47:50;;;;;;;15.67;9.20;;;8.50;1.00;;;;;;5012698;28;20498;-74
2021/11/18 08:50:19;;;;;;;20.83;10.40;;;8.60;1.00;;;;;;5012667;28;20416;-74
2021/11/18 08:52:46;;;;;;;20.60;9.33;;;8.60;1.00;;;;;;5011465;28;20461;-74
2021/11/18 08:55:20;;;;;;;22.77;9.90;;;8.60;1.00;;;;;;5001191;28;20412;-74
2021/11/18 08:57:47;;;;;;;14.63;7.63;;;8.60;1.00;;;;;;5006568;28;20911;-74
2021/11/18 09:00:22;;;;;;;18.67;8.77;;;8.70;1.00;;;;;;5012760;28;20419;-74
2021/11/18 09:02:49;;;;;;;14.90;8.83;;;8.70;1.00;;;;;;5008741;28;20913;-74
2021/11/18 09:05:15;;;;;;;16.90;8.43;;;8.80;1.00;;;;;;5012440;28;20420;-74
2021/11/18 09:07:41;;;;;;;17.13;8.37;;;8.80;1.00;;;;;;5012979;28;20408;-74
2021/11/18 09:10:08;;;;;;;15.67;8.63;;;8.90;1.00;;;;;;5011416;28;20835;-74
2021/11/18 09:12:33;;;;;;;15.73;8.73;;;8.90;1.00;;;;;;5012896;28;20715;-74
2021/11/18 09:15:01;;;;;;;17.97;8.80;;;9.00;1.00;;;;;;5012222;28;20647;-74
2021/11/18 09:17:28;;;;;;;13.43;7.90;;;9.60;1.00;;;;;;5012536;28;20177;-74
2021/11/18 09:19:55;;;;;;;16.57;7.87;;;;;;;;;;5012759;28;20430;-74
2021/11/18 09:22:23;;;;;;;15.97;8.43;;;9.40;1.00;;;;;;5012306;28;20412;-76
2021/11/18 09:24:53;;;;;;;21.83;8.77;;;9.50;1.00;;;;;;5009805;28;20482;-77
2021/11/18 09:27:23;;;;;;;20.83;8.70;;;9.50;1.00;;;;;;5003663;28;20543;-76
2021/11/18 09:29:49;;;;;;;18.43;8.17;;;;;;;;;;5013572;28;20415;-76
2021/11/18 09:32:16;;;;;;;15.83;8.37;;;9.70;1.00;;;;;;5015629;28;20435;-77
2021/11/18 09:34:43;;;;;;;13.37;7.57;;;;;;;;;;5013735;28;20511;-77
2021/11/18 09:37:10;;;;;;;14.80;7.73;;;9.70;1.00;;;;;;5016534;28;20459;-76
2021/11/18 09:39:38;;;;;;;17.00;7.70;;;9.60;1.00;;;;;;5007316;28;20412;-77
2021/11/18 09:42:14;;;;;;;13.53;7.00;;;9.60;1.00;;;;;;4999302;28;20784;-77
2021/11/18 09:45:16;;;;;;;14.80;7.87;;;9.60;1.00;;;;;;5014939;28;20803;-76
2021/11/18 09:48:00;;;;;;;16.27;8.27;;;9.60;1.00;;;;;;5015982;28;20491;-76
2021/11/18 09:50:47;;;;;;;18.23;8.57;;;9.50;1.00;;;;;;5016211;28;20482;-76
2021/11/18 09:53:27;;;;;;;10.50;7.20;;;9.50;1.00;;;;;;5003087;28;20408;-76
2021/11/18 09:56:32;;;;;;;19.43;7.30;;;9.70;1.00;;;;;;5029165;28;20998;-74
2021/11/18 09:59:30;;;;;;;12.10;6.50;;;9.70;1.00;;;;;;5000015;28;20856;-74
2021/11/18 10:02:05;;;;;;;21.50;8.33;;;10.10;1.00;;;;;;5005063;28;20477;-74
2021/11/18 10:04:47;;;;;;;10.67;6.67;;;10.20;1.00;;;;;;5015509;28;20430;-74
2021/11/18 10:07:30;;;;;;;13.83;7.30;;;10.00;1.00;;;;;;5014632;28;20915;-74
2021/11/18 10:10:17;;;;;;;11.10;7.00;;;10.00;1.00;;;;;;5015514;28;20420;-74
2021/11/18 10:13:18;;;;;;;11.90;7.10;;;9.80;1.00;;;;;;5015640;28;20482;-74
2021/11/18 10:16:21;;;;;;;12.23;6.50;;;9.80;1.00;;;;;;5002815;28;20981;-74
2021/11/18 10:18:52;;;;;;;13.43;7.23;;;9.80;1.00;;;;;;4953673;29;20422;-74
2021/11/18 10:21:24;;;;;;;13.93;7.00;;;9.70;1.00;;;;;;4935429;29;20423;-74
2021/11/18 10:23:55;;;;;;;13.60;7.57;;;9.80;1.00;;;;;;4943240;29;20435;-74
2021/11/18 10:26:28;;;;;;;14.37;6.40;;;9.80;1.00;;;;;;4942784;29;20479;-77
2021/11/18 10:29:00;;;;;;;16.90;8.50;;;9.90;1.00;;;;;;4947771;29;20422;-77
2021/11/18 10:31:50;;;;;;;12.03;6.83;;;10.00;1.00;;;;;;4935070;29;20821;-77
2021/11/18 10:34:16;;;;;;;10.03;6.50;;;10.00;1.00;;;;;;4935292;29;20459;-77
2021/11/18 10:37:04;;;;;;;12.10;6.90;;;10.50;1.00;;;;;;4953534;29;20518;-77
2021/11/18 10:39:41;;;;;;;14.93;7.53;;;9.80;1.00;;;;;;4947053;29;20647;-74
2021/11/18 10:42:28;;;;;;;11.17;6.50;;;9.70;1.00;;;;;;4935265;29;20442;-74
2021/11/18 10:44:59;;;;;;;14.53;8.10;;;9.60;1.00;;;;;;4942259;29;20446;-74
2021/11/18 10:47:31;;;;;;;13.90;7.50;;;9.50;1.00;;;;;;4951975;29;20887;-74
2021/11/18 10:50:02;;;;;;;14.70;6.60;;;9.50;1.00;;;;;;4936065;29;21037;-74
2021/11/18 10:52:36;;;;;;;12.37;7.13;;;9.40;1.00;;;;;;4946783;29;20446;-74
2021/11/18 10:55:15;;;;;;;14.10;7.30;;;9.40;1.00;;;;;;4989770;28;20431;-77
2021/11/18 10:57:59;;;;;;;13.93;7.80;;;9.30;1.00;;;;;;5014949;28;20424;-77
2021/11/18 11:00:41;;;;;;;12.77;7.77;;;9.30;1.00;;;;;;5005543;28;20440;-77
2021/11/18 11:03:44;;;;;;;18.40;8.60;;;9.40;1.00;;;;;;5006424;28;20417;-77
2021/11/18 11:06:17;;;;;;;15.63;8.13;;;9.40;1.00;;;;;;4958284;28;20571;-77
2021/11/18 11:12:31;;;;;;;13.20;7.97;;;9.50;1.00;;;;;;4963120;28;20438;-77
2021/11/18 11:21:58;;;;;;;15.37;7.67;;;9.70;1.00;;;;;;4968929;28;21037;-79
2021/11/18 11:25:10;;;;;;;17.03;6.83;;;9.80;1.00;;;;;;4958153;28;20433;-77
2021/11/18 11:28:08;;;;;;;14.73;8.13;;;9.90;1.00;;;;;;4968403;28;20438;-74
2021/11/18 11:31:09;;;;;;;13.67;7.30;;;9.80;1.00;;;;;;4973182;28;20433;-73
2021/11/18 11:33:51;;;;;;;16.40;7.70;;;9.80;1.00;;;;;;4960575;28;20525;-75
2021/11/18 11:36:48;;;;;;;12.57;6.67;;;11.90;1.00;;;;;;4963011;28;20536;-73
2021/11/18 11:39:29;;;;;;;15.00;7.80;;;9.70;1.00;;;;;;4961410;28;20420;-73
2021/11/18 11:42:00;;;;;;;11.10;6.70;;;9.80;1.00;;;;;;4998875;28;20519;-79
2021/11/18 11:44:36;;;;;;;14.90;7.60;;;9.70;1.00;;;;;;5011218;28;20447;-79
2021/11/18 11:47:06;;;;;;;16.10;7.70;;;9.60;1.00;;;;;;5013909;28;20455;-78
2021/11/18 11:49:41;;;;;;;17.27;8.30;;;9.60;1.00;;;;;;5012754;28;20530;-77
2021/11/18 11:52:28;;;;;;;11.40;6.37;;;9.60;1.00;;;;;;5008371;28;20447;-77
2021/11/18 11:55:31;;;;;;;11.53;7.30;;;9.70;1.00;;;;;;5018546;28;20506;-77
2021/11/18 11:58:10;;;;;;;24.37;7.63;;;9.80;1.00;;;;;;5005486;28;20832;-73
2021/11/18 12:01:16;;;;;;;12.77;7.00;;;9.90;1.00;;;;;;5011201;28;20440;-74
2021/11/18 12:04:00;;;;;;;19.07;6.37;;;10.00;1.00;;;;;;5009876;28;20437;-75
2021/11/18 12:06:53;;;;;;;9.93;6.07;;;10.10;1.00;;;;;;5010206;28;20521;-74
2021/11/18 12:09:41;;;;;;;13.30;6.40;;;10.20;1.00;;;;;;5001466;28;20455;-74
2021/11/18 12:12:21;;;;;;;11.10;5.73;;;10.40;1.00;;;;;;4952461;29;20513;-74
2021/11/18 12:14:47;;;;;;;13.23;6.80;;;10.70;1.00;;;;;;4941061;29;20431;-74
2021/11/18 12:17:47;;;;;;;10.30;5.43;;;11.00;1.00;;;;;;4933812;29;20397;-74
2021/11/18 12:20:26;;;;;;;10.77;5.87;;;11.20;1.00;;;;;;4933835;29;20451;-73
2021/11/18 12:23:04;;;;;;;17.00;5.80;;;11.40;1.00;;;;;;4948100;29;20432;-75
2021/11/18 12:25:47;;;;;;;8.60;5.30;;;11.60;1.00;;;;;;4933765;29;21029;-74
2021/11/18 12:28:16;;;;;;;11.83;5.80;;;11.60;1.00;;;;;;4934606;29;20428;-74
2021/11/18 12:30:47;;;;;;;12.93;5.90;;;11.50;1.00;;;;;;4963990;28;20421;-74
2021/11/18 12:33:18;;;;;;;9.20;5.77;;;11.40;1.00;;;;;;4966181;28;20890;-74
2021/11/18 12:36:05;;;;;;;11.33;6.03;;;11.50;1.00;;;;;;4949269;29;20505;-74
2021/11/18 12:38:46;;;;;;;14.80;6.20;;;11.50;1.00;;;;;;4948891;29;20434;-74
2021/11/18 12:41:34;;;;;;;14.97;5.43;;;11.60;1.00;;;;;;4952740;29;20414;-73
2021/11/18 12:44:33;;;;;;;9.77;4.83;;;11.60;1.00;;;;;;4951245;28;20518;-73
2021/11/18 12:47:01;;;;;;;11.97;5.37;;;11.50;1.00;;;;;;4970823;28;20981;-73
2021/11/18 12:49:47;;;;;;;13.30;4.70;;;11.40;1.00;;;;;;4988839;28;20927;-73
2021/11/18 12:52:18;;;;;;;7.77;3.63;;;11.20;1.00;;;;;;5019005;28;20438;-73
2021/11/18 12:55:13;;;;;;;9.77;3.93;;;11.10;1.00;;;;;;5013413;28;20477;-73
2021/11/18 12:57:46;;;;;;;8.60;3.50;;;10.90;1.00;;;;;;5007439;28;20455;-77
2021/11/18 13:00:15;;;;;;;7.50;3.43;;;10.80;1.00;;;;;;5012230;28;20427;-77
2021/11/18 13:02:45;;;;;;;8.60;3.60;;;10.70;1.00;;;;;;5010927;28;20436;-77
2021/11/18 13:05:10;;;;;;;16.73;4.20;;;10.60;1.00;;;;;;5012670;28;20515;-77
2021/11/18 13:07:57;;;;;;;5.27;3.67;;;10.50;1.00;;;;;;5011579;28;20524;-77
2021/11/18 13:10:40;;;;;;;14.30;3.50;;;10.50;1.00;;;;;;5012882;28;20331;-77
2021/11/18 13:13:05;;;;;;;8.37;3.57;;;10.40;1.00;;;;;;5009365;28;20536;-74
2021/11/18 13:15:54;;;;;;;7.63;3.20;;;10.40;1.00;;;;;;5012471;28;20423;-74
2021/11/18 13:18:25;;;;;;;5.30;3.13;;;10.30;1.00;;;;;;5012377;28;20283;-74
2021/11/18 13:20:57;;;;;;;10.93;3.47;;;10.30;1.00;;;;;;5011945;28;21167;-74
2021/11/18 13:23:38;;;;;;;7.50;4.27;;;10.30;1.00;;;;;;5013408;28;20761;-74
2021/11/18 13:26:19;;;;;;;10.03;4.23;;;10.30;1.00;;;;;;5011611;28;20895;-74
2021/11/18 13:29:15;;;;;;;6.40;3.30;;;10.20;1.00;;;;;;5011897;28;20445;-77
2021/11/18 13:31:58;;;;;;;6.83;3.13;;;10.20;1.00;;;;;;5003317;28;20506;-77
2021/11/18 13:34:26;;;;;;;9.60;4.00;;;10.20;1.00;;;;;;5012280;28;20423;-77
2021/11/18 13:37:01;;;;;;;10.23;3.67;;;10.20;1.00;;;;;;5011609;28;20441;-77
2021/11/18 13:39:30;;;;;;;6.70;3.50;;;10.20;1.00;;;;;;5010618;28;20787;-77
2021/11/18 13:41:56;;;;;;;3.43;3.13;;;10.30;1.00;;;;;;5004358;28;20435;-77
2021/11/18 13:44:42;;;;;;;7.63;4.00;;;10.30;1.00;;;;;;5005458;28;20484;-77
2021/11/18 13:47:28;;;;;;;3.27;2.80;;;10.30;1.00;;;;;;5008181;28;20943;-77
2021/11/18 13:49:58;;;;;;;5.13;3.67;;;10.30;1.00;;;;;;4995583;28;20467;-77
2021/11/18 13:52:38;;;;;;;4.40;2.63;;;10.30;1.00;;;;;;5010952;28;20443;-77
2021/11/18 13:55:18;;;;;;;3.43;3.00;;;10.40;1.00;;;;;;5017662;28;20458;-77
2021/11/18 13:57:51;;;;;;;8.30;2.77;;;10.40;1.00;;;;;;5012631;28;20431;-74
2021/11/18 14:00:20;;;;;;;5.53;2.70;;;10.40;1.00;;;;;;5012219;28;20459;-74
2021/11/18 14:02:57;;;;;;;4.77;2.97;;;10.40;1.00;;;;;;5011997;28;20428;-74
2021/11/18 14:05:47;;;;;;;4.33;2.50;;;10.40;1.00;;;;;;5012245;28;20746;-74
2021/11/18 14:08:29;;;;;;;6.70;3.10;;;10.50;1.00;;;;;;5012242;28;20531;-74
2021/11/18 14:11:03;;;;;;;8.47;2.63;;;10.60;1.00;;;;;;5011924;28;20902;-74
2021/11/18 14:13:41;;;;;;;6.37;3.03;;;10.50;1.00;;;;;;5014967;28;20505;-74
2021/11/18 14:16:24;;;;;;;4.20;2.00;;;10.50;1.00;;;;;;5015508;28;20442;-74
2021/11/18 14:19:09;;;;;;;8.83;2.30;;;10.50;1.00;;;;;;5026295;28;20789;-74
2021/11/18 14:21:47;;;;;;;4.10;2.63;;;10.50;1.00;;;;;;5014061;28;20432;-74
2021/11/18 14:24:32;;;;;;;5.03;2.60;;;10.40;1.00;;;;;;5014934;28;20436;-74
2021/11/18 14:27:07;;;;;;;3.20;2.33;;;10.50;1.00;;;;;;5015715;28;20459;-74
2021/11/18 14:29:44;;;;;;;8.53;2.93;;;10.30;1.00;;;;;;5009566;28;20489;-73
2021/11/18 14:32:22;;;;;;;9.37;2.67;;;10.20;1.00;;;;;;5011429;28;20444;-74
2021/11/18 14:34:58;;;;;;;9.00;2.83;;;10.20;1.00;;;;;;5004614;28;20443;-73